createdAt,value
2022-08-19T00:01:59.611Z,7.47
2022-08-19T00:04:33.406Z,6.33
2022-08-19T00:07:02.212Z,7.40
2022-08-19T00:09:30.952Z,7.77
2022-08-19T00:12:00.440Z,9.87
2022-08-19T00:14:32.631Z,8.10
2022-08-19T00:17:02.259Z,6.13
2022-08-19T00:19:31.284Z,5.80
2022-08-19T00:21:59.539Z,7.93
2022-08-19T00:24:29.562Z,6.10
2022-08-19T00:27:05.090Z,6.80
2022-08-19T00:29:52.451Z,5.90
2022-08-19T00:32:21.740Z,6.97
2022-08-19T00:34:50.005Z,7.27
2022-08-19T00:37:18.226Z,7.03
2022-08-19T00:39:46.424Z,6.40
2022-08-19T00:42:17.688Z,7.03
2022-08-19T00:44:46.346Z,5.20
2022-08-19T00:47:16.559Z,7.67
2022-08-19T00:49:51.615Z,6.47
2022-08-19T00:52:25.948Z,7.23
2022-08-19T00:54:54.863Z,9.03
2022-08-19T00:57:29.162Z,5.60
2022-08-19T01:00:01.781Z,5.47
2022-08-19T01:02:34.425Z,9.83
2022-08-19T01:05:07.699Z,6.80
2022-08-19T01:07:38.142Z,5.33
2022-08-19T01:10:11.132Z,6.57
2022-08-19T01:12:41.233Z,5.20
2022-08-19T01:15:13.819Z,5.67
2022-08-19T01:17:45.037Z,5.60
2022-08-19T01:20:18.022Z,5.97
2022-08-19T01:22:50.024Z,4.83
2022-08-19T01:25:23.261Z,6.37
2022-08-19T01:27:54.729Z,8.00
2022-08-19T01:30:27.880Z,5.20
2022-08-19T01:32:57.707Z,5.50
2022-08-19T01:35:27.740Z,7.93
2022-08-19T01:38:00.461Z,11.87
2022-08-19T01:40:34.143Z,11.33
2022-08-19T01:43:03.898Z,7.70
2022-08-19T01:45:35.297Z,5.60
2022-08-19T01:48:04.408Z,5.53
2022-08-19T01:50:34.762Z,12.23
2022-08-19T01:53:10.061Z,6.10
2022-08-19T01:55:42.436Z,5.63
2022-08-19T01:58:17.488Z,6.30
2022-08-19T02:00:47.108Z,5.47
2022-08-19T02:03:15.456Z,5.40
2022-08-19T02:05:44.765Z,5.43
2022-08-19T02:08:14.875Z,8.00
2022-08-19T02:10:45.225Z,7.07
2022-08-19T02:13:15.379Z,8.37
2022-08-19T02:15:44.130Z,6.70
2022-08-19T02:18:12.524Z,6.80
2022-08-19T02:20:42.727Z,6.80
2022-08-19T02:23:16.207Z,5.00
2022-08-19T02:25:46.946Z,6.83
2022-08-19T02:28:18.575Z,6.27
2022-08-19T02:30:49.330Z,5.93
2022-08-19T02:33:18.635Z,5.40
2022-08-19T02:35:48.230Z,5.17
2022-08-19T02:38:29.060Z,5.87
2022-08-19T02:41:00.783Z,7.50
2022-08-19T02:43:33.819Z,6.90
2022-08-19T02:46:03.631Z,4.80
2022-08-19T02:48:33.839Z,5.47
2022-08-19T02:51:02.677Z,6.47
2022-08-19T02:53:32.292Z,7.23
2022-08-19T02:56:00.577Z,9.40
2022-08-19T02:58:28.995Z,6.20
2022-08-19T03:00:58.754Z,5.57
2022-08-19T03:03:27.568Z,8.70
2022-08-19T03:06:07.177Z,6.57
2022-08-19T03:08:37.412Z,10.63
2022-08-19T03:11:06.361Z,4.77
2022-08-19T03:13:34.900Z,5.77
2022-08-19T03:16:07.840Z,5.87
2022-08-19T03:18:36.205Z,4.33
2022-08-19T03:21:05.106Z,6.53
2022-08-19T03:23:33.734Z,7.27
2022-08-19T03:26:16.474Z,5.90
2022-08-19T03:28:51.006Z,7.57
2022-08-19T03:31:41.759Z,5.00
2022-08-19T03:34:13.464Z,7.10
2022-08-19T03:36:42.742Z,5.97
2022-08-19T03:39:13.123Z,6.47
2022-08-19T03:41:48.492Z,5.60
2022-08-19T03:44:20.562Z,5.47
2022-08-19T03:46:51.360Z,5.90
2022-08-19T03:49:20.745Z,5.90
2022-08-19T03:51:51.184Z,7.00
2022-08-19T03:54:23.839Z,4.80
2022-08-19T03:56:57.323Z,5.30
2022-08-19T03:59:29.034Z,5.73
2022-08-19T04:02:00.015Z,4.90
2022-08-19T04:04:29.656Z,6.33
2022-08-19T04:06:58.846Z,4.60
2022-08-19T04:09:27.918Z,4.80
2022-08-19T04:11:59.268Z,4.87
2022-08-19T04:14:31.022Z,5.70
2022-08-19T04:17:00.157Z,4.70
2022-08-19T04:19:31.077Z,4.87
2022-08-19T04:21:59.880Z,4.83
2022-08-19T04:24:28.394Z,5.60
2022-08-19T04:26:57.997Z,5.93
2022-08-19T04:29:28.135Z,7.27
2022-08-19T04:31:59.135Z,6.50
2022-08-19T04:34:30.981Z,4.93
2022-08-19T04:37:00.542Z,5.20
2022-08-19T04:39:46.282Z,5.00
2022-08-19T04:42:34.095Z,5.13
2022-08-19T04:45:03.532Z,5.43
2022-08-19T04:47:49.201Z,7.10
2022-08-19T04:50:23.543Z,6.23
2022-08-19T04:52:54.252Z,6.17
2022-08-19T04:55:22.663Z,12.20
2022-08-19T04:57:52.381Z,11.73
2022-08-19T05:00:20.766Z,5.30
2022-08-19T05:02:50.225Z,6.93
2022-08-19T05:05:18.795Z,5.93
2022-08-19T05:07:47.206Z,11.73
2022-08-19T05:10:15.433Z,5.37
2022-08-19T05:12:43.772Z,8.70
2022-08-19T05:15:13.644Z,7.00
2022-08-19T05:18:03.171Z,7.27
2022-08-19T05:20:49.263Z,13.63
2022-08-19T05:23:20.591Z,5.57
2022-08-19T05:25:52.507Z,12.13
2022-08-19T05:28:21.622Z,8.40
2022-08-19T05:30:51.895Z,6.90
2022-08-19T05:33:20.839Z,10.10
2022-08-19T05:35:50.229Z,7.73
2022-08-19T05:38:19.541Z,9.10
2022-08-19T05:40:47.995Z,12.53
2022-08-19T05:43:17.437Z,10.10
2022-08-19T05:45:46.343Z,6.83
2022-08-19T05:48:18.411Z,6.80
2022-08-19T05:50:47.443Z,6.77
2022-08-19T05:53:17.298Z,9.07
2022-08-19T05:55:45.675Z,13.63
2022-08-19T05:58:14.210Z,11.37
2022-08-19T06:00:45.196Z,7.73
2022-08-19T06:03:15.030Z,9.90
2022-08-19T06:05:51.974Z,15.03
2022-08-19T06:08:34.604Z,13.20
2022-08-19T06:11:23.560Z,18.20
2022-08-19T06:13:59.438Z,16.60
2022-08-19T06:16:28.658Z,14.53
2022-08-19T06:19:02.001Z,17.60
2022-08-19T06:21:31.943Z,21.17
2022-08-19T06:24:00.828Z,23.20
2022-08-19T06:26:29.262Z,20.70
2022-08-19T06:28:57.510Z,21.87
2022-08-19T06:31:32.202Z,17.43
2022-08-19T06:34:02.964Z,16.33
2022-08-19T06:36:37.125Z,17.50
2022-08-19T06:39:08.385Z,20.23
2022-08-19T06:41:43.597Z,18.40
2022-08-19T06:44:16.630Z,17.90
2022-08-19T06:46:45.508Z,21.10
2022-08-19T06:49:23.794Z,18.37
2022-08-19T06:51:52.996Z,21.77
2022-08-19T06:54:21.611Z,23.57
2022-08-19T06:56:50.193Z,21.37
2022-08-19T06:59:22.282Z,20.43
2022-08-19T07:01:52.989Z,18.80
2022-08-19T07:04:26.079Z,19.37
2022-08-19T07:07:01.327Z,24.00
2022-08-19T07:09:52.176Z,20.60
2022-08-19T07:12:32.271Z,20.17
2022-08-19T07:15:01.570Z,23.97
2022-08-19T07:17:30.021Z,19.10
2022-08-19T07:20:05.373Z,16.47
2022-08-19T07:22:37.700Z,17.20
2022-08-19T07:25:09.090Z,19.60
2022-08-19T07:27:39.726Z,15.97
2022-08-19T07:30:12.130Z,13.20
2022-08-19T07:32:40.777Z,15.80
2022-08-19T07:35:11.816Z,12.70
2022-08-19T07:37:45.077Z,16.03
2022-08-19T07:40:13.984Z,19.03
2022-08-19T07:42:43.181Z,16.10
2022-08-19T07:45:12.078Z,18.77
2022-08-19T07:47:47.748Z,15.07
2022-08-19T07:50:21.829Z,18.63
2022-08-19T07:52:50.943Z,17.67
2022-08-19T07:55:41.039Z,19.97
2022-08-19T07:58:13.574Z,17.37
2022-08-19T08:00:42.843Z,16.10
2022-08-19T08:03:11.326Z,24.63
2022-08-19T08:05:58.510Z,25.20
2022-08-19T08:08:53.071Z,23.80
2022-08-19T08:11:24.021Z,22.23
2022-08-19T08:14:00.406Z,19.20
2022-08-19T08:16:30.845Z,20.63
2022-08-19T08:19:00.204Z,27.53
2022-08-19T08:21:31.002Z,22.40
2022-08-19T08:26:32.329Z,22.07
2022-08-19T08:29:02.738Z,22.63
2022-08-19T08:31:41.692Z,20.47
2022-08-19T08:34:10.747Z,17.60
2022-08-19T08:36:43.508Z,15.67
2022-08-19T08:39:11.928Z,19.90
2022-08-19T08:41:53.610Z,19.97
2022-08-19T08:44:25.859Z,24.93
2022-08-19T08:46:57.955Z,21.77
2022-08-19T08:49:35.994Z,18.47
2022-08-19T08:52:11.207Z,24.37
2022-08-19T08:54:54.856Z,25.43
2022-08-19T08:57:33.750Z,21.50
2022-08-19T09:00:15.661Z,20.97
2022-08-19T09:02:44.065Z,20.57
2022-08-19T09:05:16.273Z,20.17
2022-08-19T09:07:54.149Z,24.47
2022-08-19T09:10:31.309Z,23.10
2022-08-19T09:13:12.029Z,35.10
2022-08-19T09:15:47.567Z,23.00
2022-08-19T09:18:19.258Z,21.60
2022-08-19T09:20:49.144Z,23.53
2022-08-19T09:23:19.309Z,24.53
2022-08-19T09:25:55.609Z,20.20
2022-08-19T09:28:27.223Z,19.83
2022-08-19T09:30:55.598Z,32.00
2022-08-19T09:33:23.734Z,21.83
2022-08-19T09:35:53.160Z,17.40
2022-08-19T09:38:23.498Z,18.73
2022-08-19T09:40:51.671Z,19.07
2022-08-19T09:43:33.215Z,19.83
2022-08-19T09:46:10.153Z,22.67
2022-08-19T09:48:39.210Z,18.30
2022-08-19T09:51:11.833Z,21.67
2022-08-19T09:53:41.588Z,18.60
2022-08-19T09:56:09.965Z,19.10
2022-08-19T09:58:39.124Z,15.47
2022-08-19T10:01:09.254Z,18.60
2022-08-19T10:03:38.841Z,12.40
2022-08-19T10:06:15.228Z,14.30
2022-08-19T10:08:50.358Z,10.93
2022-08-19T10:11:27.783Z,14.77
2022-08-19T10:14:03.841Z,11.73
2022-08-19T10:16:32.534Z,11.83
2022-08-19T10:19:07.581Z,10.10
2022-08-19T10:21:36.233Z,10.33
2022-08-19T10:24:09.503Z,11.27
2022-08-19T10:26:42.853Z,10.83
2022-08-19T10:29:10.911Z,17.93
2022-08-19T10:32:00.713Z,11.07
2022-08-19T10:34:28.517Z,11.73
2022-08-19T10:37:00.947Z,10.00
2022-08-19T10:39:43.393Z,8.83
2022-08-19T10:42:13.961Z,11.07
2022-08-19T10:44:42.925Z,11.80
2022-08-19T10:47:17.891Z,10.47
2022-08-19T10:50:12.188Z,12.70
2022-08-19T10:52:48.974Z,14.20
2022-08-19T10:55:41.518Z,9.83
2022-08-19T10:58:14.524Z,9.90
2022-08-19T11:00:43.465Z,12.63
2022-08-19T11:03:11.836Z,12.40
2022-08-19T11:05:40.873Z,15.33
2022-08-19T11:08:18.149Z,9.90
2022-08-19T11:10:58.914Z,12.23
2022-08-19T11:13:27.350Z,15.00
2022-08-19T11:16:03.972Z,10.70
2022-08-19T11:18:38.005Z,8.50
2022-08-19T11:21:13.225Z,9.57
2022-08-19T11:23:42.114Z,9.53
2022-08-19T11:26:12.326Z,9.77
2022-08-19T11:28:40.614Z,9.13
2022-08-19T11:31:13.674Z,9.27
2022-08-19T11:33:42.171Z,9.97
2022-08-19T11:36:17.064Z,8.90
2022-08-19T11:38:45.461Z,12.00
2022-08-19T11:41:15.056Z,8.80
2022-08-19T11:43:43.992Z,7.80
2022-08-19T11:46:16.307Z,8.33
2022-08-19T11:48:44.629Z,9.60
2022-08-19T11:51:22.559Z,7.87
2022-08-19T11:53:51.540Z,9.13
2022-08-19T11:56:22.741Z,8.73
2022-08-19T11:58:51.208Z,10.10
2022-08-19T12:01:21.831Z,7.40
2022-08-19T12:03:52.684Z,10.87
2022-08-19T12:06:26.533Z,10.43
2022-08-19T12:08:54.737Z,7.80
2022-08-19T12:11:24.695Z,7.50
2022-08-19T12:13:54.508Z,7.93
2022-08-19T12:16:27.613Z,9.00
2022-08-19T12:18:56.627Z,7.60
2022-08-19T12:21:29.501Z,8.17
2022-08-19T12:24:00.047Z,7.30
2022-08-19T12:26:32.247Z,8.00
2022-08-19T12:29:01.437Z,8.33
2022-08-19T12:31:30.012Z,8.13
2022-08-19T12:33:58.150Z,7.27
2022-08-19T12:36:27.045Z,8.13
2022-08-19T12:38:55.308Z,6.90
2022-08-19T12:41:23.868Z,7.20
2022-08-19T12:43:53.654Z,7.70
2022-08-19T12:46:22.336Z,10.20
2022-08-19T12:48:55.379Z,10.83
2022-08-19T12:51:24.304Z,8.47
2022-08-19T12:53:52.417Z,9.93
2022-08-19T12:56:23.184Z,9.53
2022-08-19T12:58:53.325Z,7.37
2022-08-19T13:01:23.089Z,7.50
2022-08-19T13:03:53.432Z,8.03
2022-08-19T13:06:22.320Z,6.37
2022-08-19T13:08:50.671Z,7.20
2022-08-19T13:11:21.762Z,8.27
2022-08-19T13:13:51.880Z,7.53
2022-08-19T13:16:22.859Z,6.60
2022-08-19T13:18:52.285Z,6.70
2022-08-19T13:21:22.613Z,7.57
2022-08-19T13:23:52.057Z,7.23
2022-08-19T13:26:20.681Z,7.23
2022-08-19T13:29:06.660Z,6.50
2022-08-19T13:31:55.250Z,9.07
2022-08-19T13:34:32.905Z,6.53
2022-08-19T13:37:03.822Z,6.73
2022-08-19T13:39:33.275Z,7.27
2022-08-19T13:42:02.302Z,7.43
2022-08-19T13:44:31.079Z,9.03
2022-08-19T13:47:07.695Z,6.83
2022-08-19T13:49:37.803Z,7.53
2022-08-19T13:52:07.141Z,10.03
2022-08-19T13:54:35.416Z,15.00
2022-08-19T13:57:03.551Z,25.80
2022-08-19T13:59:31.684Z,30.00
2022-08-19T14:02:00.696Z,21.13
2022-08-19T14:04:30.264Z,22.50
2022-08-19T14:06:58.305Z,27.00
2022-08-19T14:09:26.681Z,15.23
2022-08-19T14:11:54.755Z,20.80
2022-08-19T14:14:22.987Z,15.57
2022-08-19T14:16:52.748Z,12.83
2022-08-19T14:19:21.147Z,14.57
2022-08-19T14:21:50.819Z,17.97
2022-08-19T14:24:18.888Z,21.13
2022-08-19T14:26:47.063Z,13.70
2022-08-19T14:29:15.278Z,15.07
2022-08-19T14:31:44.898Z,11.00
2022-08-19T14:34:13.565Z,13.97
2022-08-19T14:36:42.713Z,13.30
2022-08-19T14:39:12.516Z,15.97
2022-08-19T14:41:42.961Z,11.97
2022-08-19T14:44:13.336Z,13.80
2022-08-19T14:46:42.043Z,10.10
2022-08-19T14:49:18.854Z,8.70
2022-08-19T14:51:47.780Z,7.30
2022-08-19T14:54:17.260Z,7.67
2022-08-19T14:56:45.449Z,9.53
2022-08-19T14:59:13.606Z,8.03
2022-08-19T15:01:41.789Z,9.73
2022-08-19T15:04:10.177Z,11.40
2022-08-19T15:06:38.777Z,10.33
2022-08-19T15:09:07.301Z,8.10
2022-08-19T15:11:37.901Z,9.70
2022-08-19T15:14:06.200Z,9.03
2022-08-19T15:16:34.877Z,9.83
2022-08-19T15:19:03.144Z,6.63
2022-08-19T15:21:31.934Z,7.13
2022-08-19T15:24:02.574Z,7.40
2022-08-19T15:26:33.100Z,6.70
2022-08-19T15:29:03.962Z,6.63
2022-08-19T15:31:35.328Z,7.27
2022-08-19T15:34:06.701Z,7.53
2022-08-19T15:36:35.117Z,8.47
2022-08-19T15:39:05.373Z,10.53
2022-08-19T15:41:36.976Z,7.03
2022-08-19T15:44:10.140Z,7.00
2022-08-19T15:46:40.589Z,8.70
2022-08-19T15:49:10.791Z,7.50
2022-08-19T15:51:40.614Z,6.00
2022-08-19T15:54:11.803Z,8.00
2022-08-19T15:56:58.634Z,7.20
2022-08-19T15:59:47.201Z,7.43
2022-08-19T16:02:34.269Z,6.20
2022-08-19T16:05:19.990Z,6.97
2022-08-19T16:07:48.410Z,6.77
2022-08-19T16:10:27.033Z,6.30
2022-08-19T16:12:57.701Z,5.50
2022-08-19T16:15:28.818Z,7.83
2022-08-19T16:17:58.128Z,6.13
2022-08-19T16:20:28.276Z,6.40
2022-08-19T16:22:58.371Z,5.60
2022-08-19T16:25:28.964Z,6.00
2022-08-19T16:28:07.320Z,5.60
2022-08-19T16:30:40.606Z,5.50
2022-08-19T16:33:10.626Z,5.97
2022-08-19T16:35:39.066Z,4.87
2022-08-19T16:38:07.864Z,4.97
2022-08-19T16:40:36.769Z,6.30
2022-08-19T16:43:05.363Z,4.40
2022-08-19T16:45:33.465Z,4.87
2022-08-19T16:48:03.822Z,3.27
2022-08-19T16:50:48.707Z,6.17
2022-08-19T16:53:21.099Z,5.70
2022-08-19T16:55:53.219Z,4.70
2022-08-19T16:58:28.196Z,9.00
2022-08-19T17:01:00.747Z,8.90
2022-08-19T17:03:36.506Z,22.53
2022-08-19T17:06:18.383Z,18.17
2022-08-19T17:08:51.103Z,10.93
2022-08-19T17:11:21.041Z,13.73
2022-08-19T17:13:51.837Z,8.17
2022-08-19T17:16:24.801Z,11.57
2022-08-19T17:18:55.829Z,10.90
2022-08-19T17:21:28.981Z,16.73
2022-08-19T17:23:57.930Z,11.20
2022-08-19T17:26:27.532Z,9.10
2022-08-19T17:28:57.961Z,10.20
2022-08-19T17:31:29.926Z,5.70
2022-08-19T17:34:00.401Z,9.90
2022-08-19T17:36:31.706Z,11.47
2022-08-19T17:39:02.796Z,6.97
2022-08-19T17:41:33.723Z,9.33
2022-08-19T17:44:03.214Z,8.03
2022-08-19T17:46:31.720Z,5.17
2022-08-19T17:49:01.656Z,3.80
2022-08-19T17:51:43.806Z,4.27
2022-08-19T17:54:16.151Z,5.90
2022-08-19T17:56:45.216Z,12.40
2022-08-19T17:59:14.511Z,2.93
2022-08-19T18:01:53.259Z,5.30
2022-08-19T18:04:25.347Z,2.27
2022-08-19T18:06:55.612Z,13.53
2022-08-19T18:09:27.444Z,6.70
2022-08-19T18:11:57.690Z,4.73
2022-08-19T18:14:33.756Z,2.90
2022-08-19T18:17:09.029Z,5.50
2022-08-19T18:19:41.473Z,3.80
2022-08-19T18:22:13.997Z,6.23
2022-08-19T18:24:46.047Z,3.87
2022-08-19T18:27:15.020Z,6.70
2022-08-19T18:29:43.379Z,4.70
2022-08-19T18:32:14.561Z,7.10
2022-08-19T18:34:45.781Z,10.23
2022-08-19T18:37:14.079Z,8.03
2022-08-19T18:39:59.701Z,6.20
2022-08-19T18:42:45.612Z,4.77
2022-08-19T18:45:31.597Z,3.93
2022-08-19T18:48:26.744Z,5.10
2022-08-19T18:50:59.013Z,9.03
2022-08-19T18:53:29.740Z,7.60
2022-08-19T18:55:59.392Z,4.17
2022-08-19T18:58:32.226Z,5.27
2022-08-19T19:01:03.265Z,3.80
2022-08-19T19:03:31.414Z,5.53
2022-08-19T19:06:01.365Z,5.03
2022-08-19T19:08:29.497Z,9.57
2022-08-19T19:11:00.853Z,3.73
2022-08-19T19:13:29.714Z,4.27
2022-08-19T19:15:57.880Z,7.67
2022-08-19T19:18:25.962Z,4.63
2022-08-19T19:20:54.195Z,6.27
2022-08-19T19:23:23.860Z,2.47
2022-08-19T19:25:53.236Z,4.90
2022-08-19T19:28:27.808Z,3.10
2022-08-19T19:30:58.572Z,3.50
2022-08-19T19:33:27.196Z,8.80
2022-08-19T19:35:55.346Z,6.37
2022-08-19T19:38:24.900Z,2.70
2022-08-19T19:40:52.961Z,3.13
2022-08-19T19:43:21.295Z,3.00
2022-08-19T19:45:49.912Z,4.40
2022-08-19T19:48:18.078Z,2.30
2022-08-19T19:50:53.920Z,2.37
2022-08-19T19:53:27.520Z,2.03
2022-08-19T19:55:58.645Z,2.40
2022-08-19T19:58:28.894Z,2.47
2022-08-19T20:00:59.051Z,2.50
2022-08-19T20:03:27.981Z,5.40
2022-08-19T20:05:59.460Z,3.20
2022-08-19T20:08:43.873Z,2.20
2022-08-19T20:11:12.941Z,2.70
2022-08-19T20:13:41.245Z,3.40
2022-08-19T20:16:09.673Z,2.40
2022-08-19T20:18:38.762Z,2.10
2022-08-19T20:21:07.439Z,2.73
2022-08-19T20:23:36.922Z,2.40
2022-08-19T20:26:06.432Z,2.07
2022-08-19T20:28:37.886Z,6.07
2022-08-19T20:31:11.581Z,3.03
2022-08-19T20:33:39.762Z,2.20
2022-08-19T20:36:08.230Z,4.13
2022-08-19T20:38:39.180Z,1.70
2022-08-19T20:41:07.806Z,1.97
2022-08-19T20:43:36.215Z,2.20
2022-08-19T20:46:04.820Z,3.20
2022-08-19T20:48:33.131Z,2.30
2022-08-19T20:51:01.608Z,2.67
2022-08-19T20:53:29.833Z,2.70
2022-08-19T20:56:00.054Z,1.57
2022-08-19T20:58:28.778Z,3.20
2022-08-19T21:01:00.601Z,2.63
2022-08-19T21:03:32.405Z,1.90
2022-08-19T21:06:00.741Z,3.17
2022-08-19T21:08:29.041Z,2.83
2022-08-19T21:10:59.697Z,2.30
2022-08-19T21:13:28.028Z,2.83
2022-08-19T21:15:56.461Z,1.73
2022-08-19T21:18:26.777Z,2.43
2022-08-19T21:20:55.925Z,2.10
2022-08-19T21:23:27.397Z,2.30
2022-08-19T21:25:59.437Z,2.40
2022-08-19T21:28:29.990Z,2.27
2022-08-19T21:31:07.031Z,2.10
2022-08-19T21:33:35.542Z,3.57
2022-08-19T21:36:05.199Z,3.17
2022-08-19T21:38:33.807Z,2.90
2022-08-19T21:41:06.678Z,3.40
2022-08-19T21:43:35.201Z,2.13
2022-08-19T21:46:03.761Z,3.77
2022-08-19T21:48:32.299Z,2.93
2022-08-19T21:51:00.588Z,3.80
2022-08-19T21:53:31.414Z,1.70
2022-08-19T21:56:04.145Z,1.93
2022-08-19T21:58:33.474Z,2.13
2022-08-19T22:01:05.965Z,2.80
2022-08-19T22:03:34.749Z,2.73
2022-08-19T22:06:03.064Z,1.97
2022-08-19T22:08:31.754Z,3.07
2022-08-19T22:11:00.168Z,6.27
2022-08-19T22:13:39.929Z,3.63
2022-08-19T22:16:10.463Z,1.63
2022-08-19T22:18:38.661Z,1.93
2022-08-19T22:21:11.278Z,3.10
2022-08-19T22:23:41.582Z,2.40
2022-08-19T22:26:10.421Z,2.30
2022-08-19T22:28:40.261Z,1.57
2022-08-19T22:31:09.952Z,1.30
2022-08-19T22:33:39.172Z,2.93
2022-08-19T22:36:08.900Z,6.07
2022-08-19T22:38:38.259Z,7.57
2022-08-19T22:41:07.960Z,2.20
2022-08-19T22:43:37.406Z,2.63
2022-08-19T22:46:16.970Z,2.93
2022-08-19T22:48:47.730Z,3.37
2022-08-19T22:51:36.684Z,3.10
2022-08-19T22:54:05.402Z,2.00
2022-08-19T22:56:34.726Z,2.70
2022-08-19T22:59:03.532Z,3.83
2022-08-19T23:01:33.394Z,3.83
2022-08-19T23:04:03.730Z,6.70
2022-08-19T23:06:33.758Z,3.17
2022-08-19T23:09:04.585Z,2.00
2022-08-19T23:11:41.712Z,2.37
2022-08-19T23:14:12.461Z,2.90
2022-08-19T23:16:42.562Z,2.73
2022-08-19T23:19:11.537Z,2.80
2022-08-19T23:21:40.293Z,3.53
2022-08-19T23:24:09.171Z,2.60
2022-08-19T23:26:37.424Z,4.37
2022-08-19T23:29:24.367Z,2.57
2022-08-19T23:31:54.092Z,3.73
2022-08-19T23:34:22.778Z,4.40
2022-08-19T23:36:51.385Z,3.30
2022-08-19T23:39:20.040Z,3.93
2022-08-19T23:41:48.251Z,2.40
2022-08-19T23:44:17.167Z,4.40
2022-08-19T23:46:55.332Z,7.40
2022-08-19T23:49:26.919Z,2.20
2022-08-19T23:51:56.479Z,2.47
2022-08-19T23:54:34.198Z,4.20
2022-08-19T23:57:13.303Z,2.20
2022-08-19T23:59:45.023Z,2.23
